• Join FlightAware (Why Join?)
  • Login
  • US Flag 
07:57PM EDT


 

Airport Tracker/Info


-or-


 

Live Flight TrackerFlight Track Log ✈ TYR920 ✈ 23-Apr-2013 ✈ LOWS / SZG - LOWW / VIE

Flight Track Log - Related Links

Times and Time Zones

All times are in EDT time to prevent confusion due to time zone crossing. See the TYR920 flight status page for this flight to view local times or setup timezone preferences in your user account.

Time Position Orientation Groundspeed Altitude Reporting Facility
EDT Latitude Longitude Course Direction KTS MPH feet Rate Location/Type
02:28AM 47.8469 13.5271 81° East  Level Estimated
02:29AM 47.8574 13.6317 82° East  Level Estimated
02:30AM 47.8677 13.7365 82° East  Level Estimated
02:31AM 47.8780 13.8412 82° East  Level Estimated
02:32AM 47.8881 13.9460 82° East  Level Estimated
02:33AM 47.8982 14.0508 82° East  Level Estimated
02:34AM 47.9082 14.1557 82° East  Level Estimated
02:35AM 47.9180 14.2606 82° East  Level Estimated
02:36AM 47.9278 14.3656 82° East  Level Estimated
02:37AM 47.9375 14.4706 82° East  Level Estimated
02:38AM 47.9471 14.5757 82° East  Level Estimated
02:39AM 47.9566 14.6807 82° East  Level Estimated
02:40AM 47.9660 14.7858 82° East  Level Estimated
02:41AM 47.9753 14.8910 82° East  Level Estimated
02:42AM 47.9845 14.9962 83° East  Level Estimated
02:43AM 47.9936 15.1014 83° East  Level Estimated
02:44AM 48.0026 15.2067 83° East  Level Estimated
02:45AM 48.0115 15.3120 83° East  Level Estimated
02:46AM 48.0203 15.4173 83° East  Level Estimated
02:47AM 48.0290 15.5227 83° East  Level Estimated
02:48AM 48.0376 15.6281 83° East  Level Estimated
02:49AM 48.0462 15.7336 83° East  Level Estimated
02:50AM 48.0546 15.8390 83° East  Level Estimated
02:51AM 48.0629 15.9445 83° East  Level Estimated
02:52AM 48.0712 16.0501 83° East  Level Estimated
02:53AM 48.0793 16.1557 83° East  Level Estimated
02:54AM 48.0873 16.2613 83° East  Level Estimated
02:55AM 48.0953 16.3669 84° East  Level Estimated
02:56AM 48.1031 16.4726 84° East  Level Estimated
02:57AM 48.1103 16.5697 84° East  Level Estimated
02:58AM 48.1103 16.5697 146° Southeast  Level Estimated
02:59AM 48.1103 16.5697 146° Southeast  Level Estimated
03:00AM 48.1103 16.5697 146° Southeast  Level Estimated
03:01AM 48.1103 16.5697 146° Southeast  Level Estimated
03:02AM 48.1103 16.5697 146° Southeast  Level Estimated
03:03AM 48.1103 16.5697 146° Southeast  Level Estimated
03:04AM 48.1103 16.5697 146° Southeast  Level Estimated